createdAt,value
2023-10-15T00:06:49.200Z,6.6
2023-10-15T00:16:51.292Z,6.5
2023-10-15T00:26:53.259Z,6.3
2023-10-15T00:36:54.695Z,6.2
2023-10-15T00:46:56.275Z,6.3
2023-10-15T00:56:57.656Z,6.4
2023-10-15T01:06:59.306Z,6.3
2023-10-15T01:17:00.683Z,6.2
2023-10-15T01:27:01.857Z,6.2
2023-10-15T01:37:02.867Z,6.5
2023-10-15T01:47:04.084Z,6.5
2023-10-15T01:57:06.070Z,6.4
2023-10-15T02:07:07.540Z,6.4
2023-10-15T02:17:09.455Z,6.4
2023-10-15T02:27:10.962Z,6.5
2023-10-15T02:47:14.118Z,6.5
2023-10-15T02:57:16.170Z,6.4
2023-10-15T03:07:18.097Z,6.4
2023-10-15T03:17:19.841Z,6.3
2023-10-15T03:27:21.840Z,6.3
2023-10-15T03:47:25.115Z,6.3
2023-10-15T03:57:26.963Z,6.2
2023-10-15T04:07:28.845Z,6.3
2023-10-15T04:17:29.903Z,6.3
2023-10-15T04:27:31.645Z,6.2
2023-10-15T04:37:32.761Z,6.3
2023-10-15T04:47:33.907Z,6.3
2023-10-15T04:57:35.702Z,6.3
2023-10-15T05:07:37.200Z,6.3
2023-10-15T05:17:38.533Z,6.3
2023-10-15T05:27:40.217Z,6.3
2023-10-15T05:28:23.975Z,6.3
2023-10-15T05:37:49.166Z,6.4
2023-10-15T05:57:51.802Z,6.4
2023-10-15T06:07:53.450Z,6.4
2023-10-15T06:17:54.875Z,6.5
2023-10-15T06:37:58.460Z,6.6
2023-10-15T06:48:00.335Z,6.6
2023-10-15T06:58:01.569Z,6.6
2023-10-15T07:08:03.328Z,6.7
2023-10-15T07:18:05.338Z,6.7
2023-10-15T07:28:06.685Z,7
2023-10-15T07:38:07.901Z,7.1
2023-10-15T07:48:09.629Z,7.1
2023-10-15T07:58:11.458Z,7.1
2023-10-15T08:08:12.947Z,7.2
2023-10-15T08:18:14.747Z,7.4
2023-10-15T08:28:16.122Z,7.6
2023-10-15T08:48:18.957Z,7.5
2023-10-15T08:58:21.745Z,7.4
2023-10-15T09:08:22.114Z,7.3
2023-10-15T09:18:24.034Z,7.3
2023-10-15T09:28:25.913Z,7.3
2023-10-15T09:38:27.688Z,7.4
2023-10-15T09:48:29.387Z,7.5
2023-10-15T09:58:30.927Z,7.6
2023-10-15T10:08:32.346Z,7.8
2023-10-15T10:18:33.919Z,7.9
2023-10-15T10:28:35.343Z,9
2023-10-15T10:38:37.093Z,9
2023-10-15T10:48:38.426Z,9.9
2023-10-15T10:58:40.040Z,9.6
2023-10-15T11:18:42.840Z,10.4
2023-10-15T11:28:44.573Z,10.1
2023-10-15T11:38:46.399Z,10.6
2023-10-15T11:48:47.680Z,9.3
2023-10-15T11:58:48.820Z,9.6
2023-10-15T12:08:50.212Z,9.9
2023-10-15T12:18:51.728Z,10.7
2023-10-15T12:28:52.919Z,11.1
2023-10-15T12:48:55.846Z,10.2
2023-10-15T12:58:57.866Z,10.3
2023-10-15T13:08:59.862Z,10.8
2023-10-15T13:19:01.115Z,9.5
2023-10-15T13:29:02.831Z,10.5
2023-10-15T13:39:06.636Z,9.4
2023-10-15T13:49:06.420Z,10.4
2023-10-15T13:59:08.144Z,11.2
2023-10-15T14:09:10.041Z,10.9
2023-10-15T14:19:11.234Z,9.9
2023-10-15T14:29:13.099Z,9.6
2023-10-15T14:39:14.914Z,9.7
2023-10-15T14:49:16.912Z,9.4
2023-10-15T14:59:18.088Z,9.1
2023-10-15T15:09:19.924Z,8.6
2023-10-15T15:19:21.964Z,8
2023-10-15T15:39:25.237Z,7.9
2023-10-15T15:49:26.406Z,7.7
2023-10-15T15:59:28.328Z,7.7
2023-10-15T16:09:30.132Z,7.6
2023-10-15T16:19:32.500Z,7.6
2023-10-15T16:29:34.059Z,7.3
2023-10-15T16:39:35.871Z,7
2023-10-15T16:49:37.153Z,6.8
2023-10-15T16:59:38.516Z,6.7
2023-10-15T17:09:40.584Z,6.5
2023-10-15T17:19:42.260Z,6.5
2023-10-15T17:29:50.183Z,6.3
2023-10-15T17:39:45.039Z,6.2
2023-10-15T17:49:46.449Z,6
2023-10-15T17:59:47.886Z,5.9
2023-10-15T18:09:49.451Z,5.7
2023-10-15T18:29:52.759Z,5.4
2023-10-15T18:39:54.753Z,5.3
2023-10-15T18:49:56.546Z,5.2
2023-10-15T19:40:04.349Z,5
2023-10-15T19:50:05.479Z,5
2023-10-15T20:00:07.244Z,5.1
2023-10-15T20:10:08.670Z,5.1
2023-10-15T20:20:10.372Z,5
2023-10-15T20:30:12.185Z,4.9
2023-10-15T20:40:14.155Z,4.8
2023-10-15T20:50:15.549Z,4.7
2023-10-15T21:00:17.152Z,4.6
2023-10-15T21:10:18.745Z,4.6
2023-10-15T21:20:20.255Z,4.6
